Latest Coastal Weather Observations for Williamtown

IDN60701

Issued at 1:21 am EDT Saturday 13 February 2016 (issued every 10 minutes, with the page automatically refreshed every 10 minutes)

About coastal observations | Map of coastal stations | Coastal observations for NSW | Marine services | Other Formats
Station Details ID: 061078 Name: WILLIAMTOWN RAAF Lat: -32.79 Lon: 151.84 Height: 9.0 m
Data from the previous 72 hours. | See also: Recent months at Williamtown
Date/Time
EDT
Temp

°C
Wind Pressure Rain
since 9am
mm
Weather Cloud Vis
km
Sea
Height
m
Swell
Dir
 
Speed
knots
Gust
knots
hPa Trend Height
m
Period
s
Dir
13/01:00am 18.9 CALM 0 0 1015.1 - 0.0 - - 10 - - - -
13/12:30am 20.1 CALM 0 1 1015.2 - 0.0 - - 10 - - - -
13/12:00am 21.8 ENE 5 7 1015.1 F 0.0 - - 10 - - - -
 
Date/Time
EDT
Temp

°C
Wind Pressure Rain
since 9am
mm
Weather Cloud Vis
km
Sea
Height
m
Swell
Dir
 
Speed
knots
Gust
knots
hPa Trend Height
m
Period
s
Dir
12/11:30pm 22.2 ENE 5 7 1015.3 - 0.0 - - 10 - - - -
12/11:00pm 22.5 ENE 7 9 1015.2 - 0.0 - - 10 - - - -
12/10:30pm 22.8 ENE 7 8 1015.4 - 0.0 - - 10 - - - -
12/10:00pm 23.1 ENE 8 12 1015.6 - 0.0 - - 10 - - - -
12/09:30pm 23.2 ENE 8 10 1015.5 - 0.0 - - 10 - - - -
12/09:00pm 23.0 ENE 7 10 1015.3 F 0.0 - - 10 - - - -
12/08:30pm 23.4 E 6 10 1015.3 - 0.0 - - 10 - - - -
12/08:00pm 24.0 E 7 9 1015.2 - 0.0 - - 10 - - - -
12/07:30pm 24.8 E 9 13 1014.8 - 0.0 - - 10 - - - -
12/07:00pm 25.5 ESE 12 15 1014.3 - 0.0 - - 10 - - - -
12/06:30pm 25.8 ESE 12 16 1014.2 - 0.0 - - 10 - - - -
12/06:00pm 26.2 ESE 14 18 1014.2 R 0.0 - - 10 - - - -
12/05:30pm 26.7 ESE 15 18 1014.1 - 0.0 - - 10 - - - -
12/05:00pm 26.8 ESE 14 17 1014.1 - 0.0 - - 10 - - - -
12/04:30pm 27.3 SE 15 19 1014.2 - 0.0 - - 10 - - - -
12/04:00pm 27.0 SE 14 18 1014.2 - 0.0 - - 10 - - - -
12/03:30pm 27.5 SE 15 18 1014.3 - 0.0 - Mostly clear 10 - - - -
12/03:00pm 27.4 SE 13 18 1014.6 S 0.0 - Mostly clear 10 - - - -
12/02:30pm 27.0 SE 14 18 1014.9 - 0.0 - Mostly clear 10 - - - -
12/02:00pm 27.4 SE 13 16 1015.1 - 0.0 - Mostly clear 10 - - - -
12/01:30pm 27.9 SE 13 17 1015.5 - 0.0 - Mostly clear 10 - - - -
12/01:00pm 27.6 SE 11 16 1015.6 - 0.0 - Mostly clear 10 - - - -
12/12:30pm 27.5 SE 9 13 1016.0 - 0.0 - Partly cloudy 10 - - - -
12/12:00pm 26.8 E 6 10 1016.4 F 0.0 - Cloudy 10 - - - -
12/11:30am 26.6 E 8 14 1016.5 - 0.0 - Partly cloudy 10 - - - -
12/11:00am 26.4 NNE 4 8 1016.7 - 0.0 - Mostly clear 10 - - - -
12/10:30am 26.2 N 6 9 1016.7 - 0.0 - Mostly clear 10 - - - -
12/10:00am 25.4 NNE 5 7 1016.9 - 0.0 - Mostly clear 10 - - - -
12/09:30am 24.7 NNE 5 8 1016.9 - 0.0 - Mostly clear 10 - - - -
12/09:00am 24.8 ENE 5 9 1016.6 R 0.0 - Mostly clear 10 - - - -
12/08:30am 23.8 NE 5 7 1016.3 - 0.0 - Mostly clear 10 - - - -
12/08:00am 22.7 NE 5 7 1016.0 - 0.0 - Mostly clear 10 - - - -
12/07:30am 21.1 ENE 4 5 1015.8 - 0.0 - Mostly clear 10 - - - -
12/07:00am 19.9 ENE 6 7 1015.5 - 0.0 - Mostly clear 10 - - - -
12/06:30am 18.9 NE 3 4 1015.3 - 0.0 Fog patches - 10 - - - -
12/06:00am 19.0 NE 2 4 1015.1 R 0.0 - - 10 - - - -
12/05:30am 19.6 E 1 4 1014.9 - 0.0 - - 10 - - - -
12/05:00am 20.0 E 5 6 1014.4 - 0.0 - - 10 - - - -
12/04:30am 19.6 CALM 0 0 1014.6 - 0.0 - - 10 - - - -
12/04:00am 20.0 CALM 0 0 1014.6 - 0.0 - - 10 - - - -
12/03:30am 20.7 NE 4 6 1014.6 - 0.0 - - 10 - - - -
12/03:00am 20.9 ENE 5 7 1014.3 F 0.0 - Mostly clear 10 - - - -
12/02:30am 20.6 NE 5 7 1014.6 - 0.0 - - 10 - - - -
12/02:00am 21.2 ENE 5 6 1014.9 - 0.0 - - 10 - - - -
12/01:30am 21.1 E 5 6 1015.0 - 0.0 - - 10 - - - -
12/01:00am 20.6 WNW 5 6 1015.8 - 0.0 - - 10 - - - -
12/12:30am 21.4 ENE 7 9 1015.1 - 0.0 - - 10 - - - -
12/12:00am 21.9 ENE 6 7 1015.3 F 0.0 - - 10 - - - -
 
Date/Time
EDT
Temp

°C
Wind Pressure Rain
since 9am
mm
Weather Cloud Vis
km
Sea
Height
m
Swell
Dir
 
Speed
knots
Gust
knots
hPa Trend Height
m
Period
s
Dir
11/11:30pm 21.7 SE 5 5 1015.8 - 0.0 - - 10 - - - -
11/11:00pm 22.7 ENE 4 6 1016.0 - 0.0 - - 10 - - - -
11/10:30pm 22.3 NE 4 5 1016.0 - 0.0 - - 10 - - - -
11/10:00pm 22.8 NE 4 6 1016.0 - 0.0 - Mostly clear 10 - - - -
11/09:30pm 23.3 ENE 5 7 1015.6 - 0.0 - Mostly clear 10 - - - -
11/09:00pm 23.6 E 6 8 1015.2 R 0.0 - Mostly clear 10 - - - -
11/08:30pm 23.8 E 7 9 1014.9 - 0.0 - Mostly clear 10 - - - -
11/08:00pm 24.2 E 9 12 1014.5 - 0.0 - Mostly clear 10 - - - -
11/07:30pm 24.5 ENE 9 14 1014.0 - 0.0 - Mostly clear 10 - - - -
11/07:00pm 25.3 ENE 10 15 1013.1 - 0.0 - Mostly clear 10 - - - -
11/06:30pm 26.4 E 13 17 1013.0 - 0.0 - Mostly clear 10 - - - -
11/06:00pm 26.7 ESE 13 17 1013.0 F 0.0 - Mostly clear 10 - - - -
11/05:30pm 26.8 ESE 15 20 1013.0 - 0.0 - Mostly clear 10 - - - -
11/05:00pm 27.3 ESE 15 19 1013.0 - 0.0 - Mostly clear 10 - - - -
11/04:30pm 27.3 ESE 13 18 1013.1 - 0.0 - Mostly clear 10 - - - -
11/04:00pm 27.2 ESE 14 17 1013.4 - 0.0 - Mostly clear 10 - - - -
11/03:30pm 27.7 ESE 15 20 1013.6 - 0.0 - Mostly clear 10 - - - -
11/03:00pm 28.3 ESE 13 17 1013.9 R 0.0 Fine Partly cloudy 40 - - - -
11/02:30pm 27.0 ESE 14 18 1014.2 - 0.0 - Mostly clear 10 - - - -
11/02:00pm 27.0 ESE 14 19 1014.3 - 0.0 - Mostly clear 10 - - - -
11/01:30pm 27.0 SE 15 18 1014.4 - 0.0 - Mostly clear 10 - - - -
11/01:00pm 27.1 SE 15 18 1014.5 - 0.0 - Mostly clear 10 - - - -
11/12:30pm 27.0 SE 14 17 1014.5 - 0.0 - Mostly clear 10 - - - -
11/12:00pm 26.8 SE 12 15 1014.6 F 0.0 Fine Mostly clear 40 - - - -
11/11:30am 27.3 NE 7 12 1014.8 - 0.0 - Mostly clear 10 - - - -
11/11:00am 26.9 N 6 10 1014.9 - 0.0 - Mostly clear 10 - - - -
11/10:30am 26.1 NNE 7 13 1014.8 - 0.0 - Mostly clear 10 - - - -
11/10:00am 25.2 ENE 7 11 1014.8 - 0.0 - Mostly clear 10 - - - -
11/09:30am 24.1 NE 7 11 1014.8 - 0.0 - Mostly clear 10 - - - -
11/09:00am 23.2 NNE 7 9 1015.0 R 0.0 Fine Mostly clear 40 - - - -
11/08:30am 22.1 NE 6 8 1015.1 - 0.0 - Mostly clear 10 - - - -
11/08:00am 20.7 CALM 0 0 1015.0 - 0.0 - Mostly clear 10 - - - -
11/07:30am 19.1 N 3 5 1014.6 - 0.0 - Mostly clear 10 - - - -
11/07:00am 17.1 CALM 0 0 1014.2 - 0.0 - Mostly clear 10 - - - -
11/06:30am 16.3 CALM 0 0 1013.8 - 0.0 Fog patches Mostly clear 10 - - - -
11/06:00am 15.7 CALM 0 0 1013.4 R 0.0 Shallow fog Mostly clear 30 - - - -
11/05:30am 16.8 CALM 0 0 1013.1 - 0.0 - - 10 - - - -
11/05:00am 16.8 CALM 0 0 1013.0 - 0.0 - - 10 - - - -
11/04:30am 16.8 CALM 0 0 1012.9 - 0.0 - - 10 - - - -
11/04:00am 17.3 CALM 0 0 1012.8 - 0.0 - - 10 - - - -
11/03:30am 17.5 CALM 0 0 1012.9 - 0.0 - - 10 - - - -
11/03:00am 17.6 CALM 0 0 1013.0 F 0.0 - - 10 - - - -
11/02:30am 17.7 CALM 0 0 1013.1 - 0.0 - - 10 - - - -
11/02:00am 18.0 CALM 0 0 1013.4 - 0.0 - - 10 - - - -
11/01:30am 19.2 CALM 0 2 1013.5 - 0.0 - - 10 - - - -
11/01:00am 20.5 NE 6 8 1013.5 - 0.0 - - 10 - - - -
11/12:30am 20.5 NE 6 9 1013.6 - 0.0 - - 10 - - - -
11/12:00am 20.8 NE 6 8 1013.9 F 0.0 - - 10 - - - -
 
Date/Time
EDT
Temp

°C
Wind Pressure Rain
since 9am
mm
Weather Cloud Vis
km
Sea
Height
m
Swell
Dir
 
Speed
knots
Gust
knots
hPa Trend Height
m
Period
s
Dir
10/11:30pm 20.9 NE 5 8 1013.9 - 0.0 - - 10 - - - -
10/11:00pm 21.4 NE 7 10 1013.9 - 0.0 - - 10 - - - -
10/10:30pm 21.9 NE 8 11 1014.1 - 0.0 - - 10 - - - -
10/10:00pm 22.3 NE 9 15 1014.1 - 0.0 - - 10 - - - -
10/09:30pm 22.5 NE 9 13 1014.0 - 0.0 - - 10 - - - -
10/09:00pm 22.8 ENE 9 14 1013.8 F 0.0 - - 10 - - - -
10/08:30pm 22.9 ENE 9 15 1013.5 - 0.0 - - 10 - - - -
10/08:00pm 23.3 ENE 9 14 1013.3 - 0.0 - - 10 - - - -
10/07:30pm 24.0 ENE 11 16 1013.1 - 0.0 - - 10 - - - -
10/07:00pm 24.7 ENE 11 16 1013.0 - 0.0 - - 10 - - - -
10/06:30pm 25.4 ENE 12 16 1012.8 - 0.0 - - 10 - - - -
10/06:00pm 25.8 ENE 13 18 1012.6 F 0.0 - Mostly clear 10 - - - -
10/05:30pm 26.6 ENE 11 17 1012.5 - 0.0 - Mostly clear 10 - - - -
10/05:00pm 26.8 ENE 11 16 1012.6 - 0.0 - Mostly clear 10 - - - -
10/04:30pm 27.6 E 12 19 1012.8 - 0.0 - Mostly clear 10 - - - -
10/04:00pm 26.9 ESE 13 18 1012.9 - 0.0 - Mostly clear 10 - - - -
10/03:30pm 27.1 ESE 14 19 1013.2 - 0.0 - Mostly clear 10 - - - -
10/03:00pm 27.3 SE 12 19 1013.4 F 0.0 Fine Mostly clear 40 - - - -
10/02:30pm 27.0 ESE 12 16 1013.8 - 0.0 - Mostly clear 10 - - - -
10/02:00pm 27.0 ESE 11 17 1014.3 - 0.0 - Partly cloudy 10 - - - -
10/01:30pm 25.5 SSE 12 15 1014.7 - 0.0 - Partly cloudy 10 - - - -
10/01:00pm 26.0 SSE 10 14 1015.0 - 0.0 - Partly cloudy 10 - - - -
10/12:30pm 26.4 SE 7 10 1015.3 - 0.0 - Partly cloudy 10 - - - -
10/12:00pm 26.1 SSE 6 8 1015.7 F 0.0 Fine Partly cloudy 40 - - - -
10/11:30am 24.8 NNW 4 6 1016.1 - 0.0 - Partly cloudy 10 - - - -
10/11:00am 24.7 NNW 4 8 1016.4 - 0.0 - Partly cloudy 10 - - - -
10/10:30am 24.8 NNW 5 7 1016.4 - 0.0 - Partly cloudy 10 - - - -
10/10:00am 24.2 N 5 8 1016.5 - 0.0 - Mostly clear 10 - - - -
10/09:30am 24.0 NW 5 8 1016.6 - 0.0 - Mostly clear 10 - - - -
10/09:00am 22.6 WNW 5 7 1016.6 F 0.0 Fine Mostly clear 40 - - - -
10/08:30am 20.8 NW 5 6 1016.7 - 0.0 - Mostly clear 10 - - - -
10/08:00am 19.5 NW 5 6 1016.6 - 0.0 - Mostly clear 10 - - - -
10/07:30am 18.7 WNW 5 6 1016.5 - 0.0 - Mostly clear 10 - - - -
10/07:00am 17.4 WNW 4 4 1016.4 - 0.0 - Mostly clear 10 - - - -
10/06:30am 16.8 CALM 0 0 1016.3 - 0.0 - Mostly clear 10 - - - -
10/06:00am 16.7 CALM 0 0 1016.2 F 0.0 Fine Mostly clear 30 - - - -
10/05:30am 17.1 CALM 0 3 1016.1 - 0.0 - - 10 - - - -
10/05:00am 17.5 NW 3 4 1015.9 - 0.0 - - 10 - - - -
10/04:30am 17.6 WNW 1 4 1015.9 - 0.0 - - 10 - - - -
10/04:00am 18.1 WNW 3 4 1015.9 - 0.0 - - 10 - - - -
10/03:30am 17.8 CALM 0 0 1016.1 - 0.0 - - 10 - - - -
10/03:00am 18.3 CALM 0 0 1016.4 F 0.0 - - 10 - - - -
10/02:30am 18.8 CALM 0 0 1016.6 - 0.0 - - 10 - - - -
10/02:00am 18.9 CALM 0 0 1016.9 - 0.0 - - 10 - - - -
10/01:30am 19.2 CALM 0 0 1017.2 - 0.0 - - 10 - - - -

Other Formats:

Comma delimited format used in spreadsheet applications
http://www.bom.gov.au/fwo/IDN60701/IDN60701.94776.axf

JavaScript Object Notation format (JSON) in row-major order
http://www.bom.gov.au/fwo/IDN60701/IDN60701.94776.json